Time;durP1;ratioP1;P1;durP2;ratioP2;P2;SDS_P1;SDS_P2;PMS_P1;PMS_P2;Temp;Humidity;BMP_temperature;BMP_pressure;BME280_temperature;BME280_humidity;BME280_pressure;Samples;Min_cycle;Max_cycle;Signal;HPM_P1;HPM_P2
2021/06/07 00:00:17;;;;;;;20.73;14.00;;;18.70;88.80;;;17.53;85.17;101252.81;5048351;28;20048;-80
2021/06/07 00:02:52;;;;;;;21.05;13.35;;;18.60;88.90;;;17.53;85.41;101257.47;5063847;28;20048;-80
2021/06/07 00:05:30;;;;;;;19.15;13.65;;;18.60;89.10;;;17.51;85.63;101252.16;5048557;28;20045;-80
2021/06/07 00:08:05;;;;;;;23.08;14.77;;;18.60;89.20;;;17.52;85.61;101250.28;5047171;28;20059;-80
2021/06/07 00:10:43;;;;;;;22.98;14.98;;;18.60;89.10;;;17.49;85.49;101251.53;5048200;28;20045;-80
2021/06/07 00:13:24;;;;;;;23.45;14.52;;;18.60;89.10;;;17.49;85.70;101257.03;5048559;28;20052;-80
2021/06/07 00:16:04;;;;;;;19.80;13.77;;;18.60;89.30;;;17.47;85.83;101259.16;5048590;28;20069;-80
2021/06/07 00:18:38;;;;;;;18.95;13.73;;;18.60;89.40;;;17.47;86.05;101256.41;5048375;28;20057;-80
2021/06/07 00:21:19;;;;;;;21.55;14.15;;;18.60;89.50;;;17.46;86.02;101260.25;5048143;28;20059;-80
2021/06/07 00:23:56;;;;;;;21.48;14.82;;;18.60;89.60;;;17.46;85.81;101260.25;5048344;28;20485;-80
2021/06/07 00:26:36;;;;;;;21.08;14.73;;;18.60;89.50;;;17.46;85.82;101260.25;5048381;28;20092;-80
2021/06/07 00:29:14;;;;;;;19.30;14.75;;;18.60;89.40;;;17.48;85.64;101262.78;5048271;28;20063;-80
2021/06/07 00:31:53;;;;;;;22.38;15.23;;;18.60;89.30;;;17.48;85.69;101257.28;5048106;28;20052;-80
2021/06/07 00:34:31;;;;;;;21.92;15.70;;;18.60;89.30;;;17.48;85.53;101263.63;5048329;28;20049;-80
2021/06/07 00:37:13;;;;;;;23.70;16.48;;;18.60;89.30;;;17.49;85.24;101262.56;5048321;28;20059;-80
2021/06/07 00:39:48;;;;;;;21.77;15.07;;;18.60;89.20;;;17.49;85.57;101259.78;5075548;22;20077;-83
2021/06/07 00:42:26;;;;;;;20.92;15.18;;;18.30;89.20;;;17.48;85.70;101262.78;5068040;28;20040;-83
2021/06/07 00:45:02;;;;;;;17.75;14.63;;;18.60;89.40;;;17.46;85.82;101260.25;5068205;28;20052;-83
2021/06/07 00:47:37;;;;;;;23.17;15.35;;;18.60;89.40;;;17.47;85.55;101261.91;5068165;28;20362;-83
2021/06/07 00:50:21;;;;;;;20.77;15.35;;;18.60;89.40;;;17.46;85.42;101257.50;5089316;28;20044;-83
2021/06/07 00:53:14;;;;;;;20.17;15.82;;;18.50;89.30;;;17.46;85.33;101256.63;5092057;28;20044;-83
2021/06/07 00:55:54;;;;;;;21.50;15.38;;;18.50;89.20;;;17.47;85.14;101255.56;5092109;28;20415;-83
2021/06/07 00:58:30;;;;;;;22.05;14.70;;;18.50;89.20;;;17.45;85.35;101258.53;5091962;28;20052;-83
2021/06/07 01:01:10;;;;;;;19.83;15.27;;;18.50;89.40;;;17.44;85.43;101259.59;5091578;28;20048;-83
2021/06/07 01:03:48;;;;;;;21.20;15.20;;;18.50;89.40;;;17.44;85.46;101256.84;5091957;28;20044;-83
2021/06/07 01:06:27;;;;;;;19.38;14.77;;;18.50;89.40;;;17.42;85.42;101252.59;5091904;28;20415;-83
2021/06/07 01:09:12;;;;;;;22.30;15.80;;;18.50;89.40;;;17.41;85.17;101251.75;5091862;28;20044;-83
2021/06/07 01:11:50;;;;;;;19.42;14.85;;;18.50;89.30;;;17.41;85.15;101251.75;5091704;28;20044;-83
2021/06/07 01:14:23;;;;;;;21.23;14.90;;;18.50;89.30;;;17.41;85.03;101254.50;5091778;28;20515;-84
2021/06/07 01:17:01;;;;;;;25.05;16.13;;;18.50;89.20;;;17.40;84.95;101258.31;5091680;28;20097;-84
2021/06/07 01:19:37;;;;;;;20.58;15.73;;;18.50;89.20;;;17.39;84.96;101259.38;5091409;28;20432;-83
2021/06/07 01:22:16;;;;;;;22.40;15.27;;;18.50;89.20;;;17.39;84.88;101249.22;5091464;28;20051;-83
2021/06/07 01:24:51;;;;;;;21.25;15.70;;;18.40;89.20;;;17.40;84.96;101250.06;5091566;28;20052;-83
2021/06/07 01:27:29;;;;;;;25.55;16.45;;;18.40;89.00;;;17.38;84.76;101253.03;5091553;28;20440;-83
2021/06/07 01:30:05;;;;;;;24.95;17.50;;;18.40;88.90;;;17.37;84.73;101248.59;5088366;28;20047;-83
2021/06/07 01:32:43;;;;;;;22.40;15.65;;;18.40;89.00;;;17.37;84.91;101250.50;5091386;28;20043;-83
2021/06/07 01:35:22;;;;;;;22.98;15.15;;;18.40;89.00;;;17.35;85.02;101252.63;5091299;28;20112;-83
2021/06/07 01:38:00;;;;;;;24.35;15.82;;;18.40;89.10;;;17.35;84.98;101255.38;5091392;28;20047;-83
2021/06/07 01:40:41;;;;;;;23.98;16.20;;;18.40;89.10;;;17.33;84.76;101252.81;5090950;28;20511;-83
2021/06/07 01:43:17;;;;;;;;;;;18.30;89.00;;;17.33;84.73;101250.06;5091649;28;20040;-83
2021/06/07 01:45:57;;;;;;;23.65;16.10;;;18.30;89.20;;;17.33;84.78;101246.47;5091222;28;19924;-83
2021/06/07 01:48:33;;;;;;;23.50;15.20;;;18.30;89.00;;;17.29;84.88;101237.81;5091106;28;20496;-83
2021/06/07 01:51:14;;;;;;;24.25;16.95;;;18.30;89.00;;;17.29;84.86;101242.47;5090828;28;20094;-83
2021/06/07 01:53:51;;;;;;;25.25;17.02;;;18.30;89.10;;;17.29;84.85;101245.22;5091078;28;20036;-83
2021/06/07 01:56:29;;;;;;;21.67;15.15;;;18.30;89.10;;;17.30;84.78;101244.97;5091014;28;20048;-83
2021/06/07 01:59:06;;;;;;;24.70;16.40;;;18.30;89.20;;;17.30;84.70;101239.47;5090805;28;20044;-83
2021/06/07 02:01:44;;;;;;;27.00;16.60;;;18.30;89.30;;;17.30;84.76;101246.88;5090540;28;20056;-83
2021/06/07 02:04:17;;;;;;;21.13;15.35;;;18.30;89.30;;;17.30;84.77;101249.66;5090733;28;20488;-83
2021/06/07 02:06:55;;;;;;;24.48;16.02;;;18.20;89.20;;;17.28;84.89;101241.59;5090665;28;20209;-83
2021/06/07 02:09:34;;;;;;;23.40;16.30;;;18.20;89.50;;;17.27;84.91;101239.06;5090340;28;20514;-83
2021/06/07 02:12:14;;;;;;;23.52;15.98;;;18.30;89.50;;;17.24;85.18;101245.84;5090500;28;20051;-83
2021/06/07 02:14:52;;;;;;;24.75;16.10;;;18.20;89.60;;;17.24;85.27;101248.59;5090510;28;20044;-83
2021/06/07 02:17:29;;;;;;;24.75;15.63;;;18.30;89.70;;;17.23;85.21;101243.28;5090659;28;20035;-83
2021/06/07 02:20:06;;;;;;;28.75;16.60;;;18.20;89.70;;;17.20;85.33;101250.91;5090070;28;20060;-83
2021/06/07 02:22:47;;;;;;;26.23;16.73;;;18.20;89.60;;;17.20;85.38;101241.81;5090357;28;20044;-83
2021/06/07 02:25:25;;;;;;;23.13;16.58;;;18.20;89.60;;;17.18;85.55;101239.28;5090004;28;20047;-83
2021/06/07 02:28:03;;;;;;;25.35;16.73;;;18.30;89.80;;;17.20;85.41;101242.66;5090342;28;20285;-83
2021/06/07 02:30:38;;;;;;;26.85;17.95;;;18.20;89.50;;;17.20;85.29;101239.06;5089851;28;20047;-83
2021/06/07 02:33:09;;;;;;;27.23;17.55;;;18.20;89.70;;;17.19;85.48;101249.22;5090135;28;20040;-83
2021/06/07 02:35:44;;;;;;;29.23;19.02;;;18.20;89.70;;;17.18;85.48;101247.53;5089971;28;20123;-83
2021/06/07 02:38:20;;;;;;;27.65;18.13;;;18.20;89.70;;;17.19;85.24;101243.72;5089908;28;20051;-83
2021/06/07 02:41:00;;;;;;;27.35;17.48;;;18.20;89.60;;;17.18;85.29;101247.53;5089821;28;20463;-83
2021/06/07 02:43:36;;;;;;;24.52;16.92;;;18.20;89.70;;;17.19;85.38;101249.22;5089872;28;20071;-83
2021/06/07 02:46:11;;;;;;;26.42;17.70;;;18.20;89.70;;;17.17;85.28;101245.84;5089880;28;20043;-83
2021/06/07 02:48:49;;;;;;;27.65;18.65;;;18.20;89.90;;;17.18;85.41;101250.28;5089757;28;20160;-83
2021/06/07 02:51:24;;;;;;;27.63;19.17;;;18.20;89.90;;;17.17;85.55;101247.72;5089399;28;20104;-83
2021/06/07 02:54:00;;;;;;;28.88;18.58;;;18.20;90.00;;;17.17;85.50;101253.22;5089851;28;20047;-83
2021/06/07 02:56:51;;;;;;;28.42;18.98;;;18.10;90.00;;;17.15;85.63;101247.97;5089728;28;20044;-83
2021/06/07 02:59:28;;;;;;;26.73;17.95;;;18.20;90.10;;;17.13;85.78;101255.53;5089516;28;20059;-83
2021/06/07 03:02:03;;;;;;;28.23;19.40;;;18.10;90.10;;;17.14;85.66;101248.16;5089564;28;20109;-83
2021/06/07 03:04:41;;;;;;;29.75;19.83;;;18.10;90.10;;;17.12;85.84;101251.13;5089542;28;20051;-83
2021/06/07 03:07:16;;;;;;;32.08;20.10;;;18.10;90.10;;;17.11;85.72;101251.31;5089566;28;20047;-83
2021/06/07 03:09:54;;;;;;;28.65;19.50;;;18.20;90.10;;;17.10;85.86;101249.66;5089200;28;20105;-83
2021/06/07 03:12:45;;;;;;;32.83;19.27;;;18.10;90.20;;;17.09;85.97;101257.03;5088847;28;20062;-83
2021/06/07 03:15:25;;;;;;;35.33;21.48;;;18.10;90.10;;;17.10;85.80;101257.91;5089494;28;20044;-83
2021/06/07 03:17:59;;;;;;;31.65;19.95;;;18.10;90.20;;;17.11;85.75;101254.06;5089413;28;20727;-83
2021/06/07 03:20:31;;;;;;;35.95;20.75;;;18.10;90.10;;;17.10;85.61;101257.91;5088876;28;20052;-83
2021/06/07 03:23:14;;;;;;;29.45;19.20;;;18.10;90.10;;;17.10;85.55;101253.22;5089181;28;20058;-83
2021/06/07 03:25:54;;;;;;;33.03;20.77;;;18.10;90.10;;;17.10;85.48;101252.41;5089193;28;20044;-83
2021/06/07 03:28:31;;;;;;;31.98;20.27;;;18.10;90.10;;;17.09;85.47;101259.78;5089093;28;20052;-83
2021/06/07 03:31:11;;;;;;;34.55;21.05;;;18.00;89.90;;;17.08;85.49;101260.84;5085573;28;20046;-84
2021/06/07 03:33:43;;;;;;;30.65;20.27;;;18.00;90.00;;;17.06;85.45;101253.84;5089123;28;20040;-83
2021/06/07 03:36:22;;;;;;;33.17;20.45;;;18.00;90.10;;;17.06;85.53;101256.59;5089106;28;20515;-83
2021/06/07 03:39:00;;;;;;;32.63;21.10;;;18.00;90.10;;;17.04;85.34;101250.47;5088888;28;20082;-84
2021/06/07 03:41:38;;;;;;;31.75;20.42;;;18.00;90.00;;;17.04;85.45;101254.09;5088742;28;20055;-83
2021/06/07 03:44:20;;;;;;;34.35;19.80;;;18.00;90.00;;;17.03;85.28;101257.88;5089006;28;20036;-83
2021/06/07 03:46:53;;;;;;;30.92;19.83;;;18.00;90.00;;;17.04;85.46;101258.72;5088817;28;20044;-83
2021/06/07 03:49:28;;;;;;;34.83;20.65;;;18.00;90.00;;;17.03;85.15;101246.88;5088763;28;20063;-83
2021/06/07 03:52:06;;;;;;;33.97;21.20;;;18.00;89.90;;;17.03;85.15;101248.78;5087293;28;20048;-83
2021/06/07 03:54:39;;;;;;;32.40;19.80;;;18.00;89.90;;;17.04;85.22;101244.97;5088773;28;20091;-83
2021/06/07 03:57:17;;;;;;;33.75;19.02;;;18.00;89.90;;;17.02;84.98;101241.56;5088641;28;20077;-83
2021/06/07 03:59:54;;;;;;;34.20;19.60;;;18.00;89.70;;;17.03;84.70;101246.03;5088349;28;20126;-83
2021/06/07 04:02:29;;;;;;;35.13;20.33;;;18.00;89.40;;;17.00;84.44;101250.03;5088543;28;20097;-83
2021/06/07 04:05:05;;;;;;;33.70;19.13;;;18.00;89.30;;;16.99;84.53;101248.34;5088809;28;20055;-83
2021/06/07 04:07:38;;;;;;;31.13;18.90;;;17.90;89.40;;;16.99;84.50;101253.84;5088741;28;20098;-83
2021/06/07 04:10:13;;;;;;;31.73;17.85;;;17.90;89.40;;;16.99;84.21;101251.09;5088398;28;20052;-83
2021/06/07 04:12:56;;;;;;;32.05;19.60;;;17.90;89.20;;;16.97;83.93;101261.47;5088774;28;20047;-83
2021/06/07 04:15:47;;;;;;;29.20;18.35;;;17.90;89.00;;;16.97;83.89;101261.47;5088688;28;20066;-84
2021/06/07 04:18:23;;;;;;;34.45;18.80;;;17.90;89.00;;;16.95;83.62;101258.06;5088575;28;20527;-83
2021/06/07 04:21:01;;;;;;;31.13;17.25;;;17.90;88.80;;;16.95;83.57;101258.06;5088364;28;20040;-84
2021/06/07 04:23:33;;;;;;;31.35;18.23;;;17.90;88.90;;;16.94;84.14;101256.38;5089373;28;20039;-85
2021/06/07 04:26:09;;;;;;;26.58;16.98;;;17.90;89.10;;;16.92;84.41;101252.97;5092698;28;20132;-81
2021/06/07 04:28:44;;;;;;;36.20;18.80;;;17.90;89.30;;;16.91;83.72;101259.56;5092538;28;20051;-85
2021/06/07 04:31:28;;;;;;;29.90;18.38;;;17.90;88.90;;;16.89;83.58;101259.75;5092079;28;20071;-81
2021/06/07 04:34:06;;;;;;;30.05;18.30;;;17.90;88.60;;;16.93;83.17;101257.44;5092408;28;20040;-83
2021/06/07 04:36:41;;;;;;;30.80;17.60;;;17.90;88.30;;;16.90;82.81;101260.59;5092519;28;20511;-82
2021/06/07 04:39:17;;;;;;;30.52;17.90;;;17.90;88.10;;;16.92;82.81;101258.47;5092457;28;20040;-83
2021/06/07 04:41:55;;;;;;;31.15;18.30;;;17.80;87.90;;;16.90;82.65;101260.59;5092255;28;20554;-82
2021/06/07 04:44:28;;;;;;;27.20;17.33;;;17.80;88.00;;;16.92;82.53;101258.47;5092462;28;20040;-81
2021/06/07 04:47:07;;;;;;;30.05;18.92;;;17.80;88.00;;;16.92;82.39;101258.47;5092422;28;20051;-83
2021/06/07 04:49:45;;;;;;;33.08;18.67;;;17.80;87.80;;;16.93;82.24;101260.19;5091973;28;20063;-82
2021/06/07 04:52:23;;;;;;;28.63;18.33;;;17.80;87.90;;;16.91;82.49;101262.31;5092251;28;20519;-83
2021/06/07 04:54:58;;;;;;;29.90;17.65;;;17.80;88.10;;;16.91;82.43;101259.56;5092256;28;20504;-82
2021/06/07 04:57:37;;;;;;;33.88;18.02;;;17.80;87.80;;;16.89;82.67;101259.75;5090844;28;20044;-81
2021/06/07 05:00:16;;;;;;;29.33;17.17;;;17.80;88.20;;;16.89;82.45;101264.41;5091833;28;20048;-81
2021/06/07 05:02:56;;;;;;;30.25;17.73;;;17.80;88.00;;;16.88;82.59;101251.72;5091974;28;20047;-81
2021/06/07 05:05:31;;;;;;;29.35;17.23;;;17.80;88.10;;;16.86;82.84;101254.66;5091872;28;20043;-80
2021/06/07 05:08:09;;;;;;;32.00;17.77;;;17.80;88.20;;;16.87;82.81;101252.75;5091620;28;20040;-81
2021/06/07 05:10:47;;;;;;;27.48;16.98;;;17.80;88.10;;;16.90;82.87;101257.84;5091135;28;20132;-81
2021/06/07 05:13:26;;;;;;;34.20;18.42;;;17.80;88.10;;;16.91;82.42;101256.81;5091836;28;20047;-81
2021/06/07 05:16:05;;;;;;;27.05;17.58;;;17.80;87.90;;;16.89;82.53;101259.75;5090389;28;20503;-82
2021/06/07 05:18:42;;;;;;;28.65;18.05;;;17.80;87.70;;;16.87;82.42;101256.38;5091664;28;20044;-81
2021/06/07 05:21:20;;;;;;;28.17;18.05;;;17.80;87.80;;;16.88;82.89;101257.22;5091213;28;20039;-80
2021/06/07 05:23:55;;;;;;;28.17;17.70;;;17.80;88.10;;;16.89;82.65;101261.66;5091732;28;20064;-80
2021/06/07 05:26:33;;;;;;;33.85;18.17;;;17.80;88.00;;;16.91;83.01;101265.06;5091629;28;20423;-80
2021/06/07 05:29:11;;;;;;;31.67;17.77;;;17.80;88.20;;;16.91;83.27;101262.31;5091541;28;20063;-85
2021/06/07 05:31:46;;;;;;;28.15;17.45;;;17.90;88.50;;;16.88;83.10;101268.22;5091352;28;20048;-84
2021/06/07 05:34:19;;;;;;;31.13;18.20;;;17.90;88.40;;;16.88;83.02;101262.72;5089631;28;20063;-84
2021/06/07 05:36:57;;;;;;;28.45;18.67;;;17.90;88.40;;;16.89;83.31;101264.41;5091404;28;20093;-81
2021/06/07 05:39:35;;;;;;;30.00;17.23;;;17.90;88.50;;;16.90;83.52;101271.59;5071813;28;20044;-80
2021/06/07 05:42:14;;;;;;;31.17;18.88;;;17.90;88.70;;;16.89;82.98;101276.25;5084270;28;20068;-81
2021/06/07 05:44:49;;;;;;;31.50;18.77;;;17.80;88.30;;;16.87;82.78;101270.13;5085711;28;20055;-82
2021/06/07 05:47:24;;;;;;;32.10;18.17;;;17.90;87.60;;;16.93;82.73;101276.69;5089652;28;20067;-82
2021/06/07 05:50:03;;;;;;;33.13;18.20;;;17.90;87.80;;;16.91;82.65;101267.81;5090786;28;20053;-82
2021/06/07 05:52:46;;;;;;;34.00;18.00;;;17.90;87.90;;;16.91;82.94;101278.81;5090758;28;20528;-82
2021/06/07 05:55:24;;;;;;;28.70;18.00;;;17.90;88.10;;;16.92;82.95;101280.47;5084558;28;20043;-82
2021/06/07 05:58:02;;;;;;;31.42;18.42;;;17.90;88.10;;;16.94;83.10;101272.88;5090093;28;20063;-82
2021/06/07 06:00:40;;;;;;;30.35;19.13;;;17.90;88.20;;;16.95;82.87;101285.56;5070555;28;20492;-82
2021/06/07 06:03:18;;;;;;;28.38;18.08;;;17.90;87.90;;;16.95;82.64;101277.31;5079429;28;20090;-82
2021/06/07 06:06:01;;;;;;;28.25;18.30;;;17.90;87.90;;;16.97;82.53;101269.72;5090494;28;20044;-81
2021/06/07 06:08:40;;;;;;;30.92;18.60;;;17.90;87.80;;;16.99;82.60;101282.19;5089460;28;20401;-79
2021/06/07 06:11:17;;;;;;;30.63;18.15;;;17.90;87.80;;;17.00;82.94;101269.28;5080859;28;20069;-81
2021/06/07 06:13:52;;;;;;;25.83;16.75;;;18.00;88.20;;;17.00;83.03;101270.16;5077361;28;20032;-81
2021/06/07 06:16:32;;;;;;;25.23;15.75;;;18.00;87.90;;;17.03;83.10;101268.88;5083792;28;20043;-81
2021/06/07 06:19:11;;;;;;;28.70;17.63;;;18.00;87.90;;;17.06;82.88;101276.72;5070307;28;20144;-81
2021/06/07 06:21:51;;;;;;;26.65;16.95;;;18.10;87.90;;;17.07;83.59;101281.16;5070045;28;20087;-81
2021/06/07 06:24:29;;;;;;;29.13;18.45;;;18.10;88.40;;;17.09;83.40;101275.44;5070133;28;20051;-80
2021/06/07 06:27:08;;;;;;;31.83;17.00;;;18.10;87.60;;;17.11;83.04;101276.06;5070120;28;20040;-80
2021/06/07 06:29:46;;;;;;;23.92;16.67;;;18.10;87.70;;;17.11;82.93;101278.81;5070808;28;20040;-81
2021/06/07 06:32:24;;;;;;;27.70;16.90;;;18.20;87.70;;;17.13;82.87;101283.06;5089932;28;20055;-81
2021/06/07 06:35:02;;;;;;;28.77;16.60;;;18.20;87.50;;;17.15;82.53;101286.47;5090357;28;20051;-80
2021/06/07 06:37:40;;;;;;;30.48;18.20;;;18.20;87.30;;;17.13;82.18;101283.06;5089988;28;20050;-81
2021/06/07 06:40:22;;;;;;;28.10;16.45;;;18.20;87.00;;;17.16;81.95;101281.81;5075222;22;20057;-82
2021/06/07 06:42:58;;;;;;;25.20;16.95;;;18.20;86.20;;;17.17;81.75;101278.84;5029779;28;20053;-82
2021/06/07 06:45:35;;;;;;;28.17;16.95;;;18.20;86.20;;;17.18;82.12;101275.03;5040545;28;20052;-82
2021/06/07 06:48:14;;;;;;;29.42;17.52;;;18.20;86.60;;;17.19;81.85;101285.00;5049363;28;20048;-83
2021/06/07 06:50:52;;;;;;;26.35;16.75;;;18.20;86.20;;;17.20;81.67;101289.41;5049422;28;20056;-82
2021/06/07 06:53:31;;;;;;;23.77;16.92;;;18.20;86.40;;;17.22;82.01;101293.88;5049611;28;20110;-82
2021/06/07 06:56:07;;;;;;;23.55;16.50;;;18.30;86.80;;;17.23;81.36;101292.81;5049746;28;20051;-82
2021/06/07 06:58:45;;;;;;;25.45;16.38;;;18.20;86.10;;;17.24;81.52;101294.50;5049579;28;20056;-82
2021/06/07 07:01:23;;;;;;;27.30;16.83;;;18.30;86.40;;;17.25;81.73;101291.56;5049390;28;20452;-82
2021/06/07 07:04:01;;;;;;;25.60;15.93;;;18.30;86.60;;;17.27;81.79;101294.06;5049564;28;20531;-79
2021/06/07 07:06:40;;;;;;;25.80;15.75;;;18.30;86.40;;;17.29;82.15;101294.75;5049810;28;20501;-82
2021/06/07 07:09:20;;;;;;;27.33;16.48;;;18.30;86.80;;;17.30;82.00;101297.25;5049559;28;20049;-81
2021/06/07 07:11:58;;;;;;;21.55;15.18;;;18.40;86.80;;;17.32;81.93;101297.06;5032621;28;20052;-81
2021/06/07 07:14:33;;;;;;;24.85;16.30;;;18.40;86.50;;;17.32;81.88;101288.78;5029759;28;20037;-81
2021/06/07 07:17:12;;;;;;;24.83;16.58;;;18.40;86.40;;;17.35;82.33;101285.63;5029947;28;20478;-81
2021/06/07 07:19:50;;;;;;;22.17;15.15;;;18.50;86.90;;;17.36;82.62;101299.19;5029392;28;20049;-82
2021/06/07 07:22:25;;;;;;;22.77;14.25;;;18.50;87.20;;;17.38;82.71;101291.56;5029676;28;20038;-81
2021/06/07 07:25:06;;;;;;;23.17;15.60;;;18.50;87.00;;;17.43;82.19;101299.19;5029455;28;20041;-82
2021/06/07 07:27:44;;;;;;;22.77;15.17;;;18.60;86.60;;;17.47;82.26;101294.94;5029704;28;20104;-81
2021/06/07 07:30:28;;;;;;;21.90;14.85;;;18.70;86.30;;;17.52;82.62;101286.91;5027707;28;20421;-81
2021/06/07 07:33:06;;;;;;;24.10;14.35;;;18.80;86.30;;;17.58;81.76;101291.56;5029299;28;20048;-81
2021/06/07 07:35:45;;;;;;;21.00;15.40;;;18.90;85.30;;;17.63;81.67;101288.19;5028886;28;20561;-81
2021/06/07 07:38:24;;;;;;;22.98;15.77;;;19.00;85.20;;;17.69;81.48;101298.34;5029446;28;20045;-81
2021/06/07 07:41:03;;;;;;;23.30;16.40;;;19.00;85.00;;;17.75;81.91;101296.66;5028978;28;20045;-82
2021/06/07 07:43:42;;;;;;;21.55;15.38;;;19.10;85.20;;;17.82;82.20;101297.50;5029182;28;20048;-82
2021/06/07 07:46:17;;;;;;;31.90;16.30;;;19.30;85.10;;;17.85;81.65;101305.34;5029260;28;20159;-81
2021/06/07 07:48:56;;;;;;;27.70;16.98;;;19.30;84.70;;;17.86;80.89;101297.91;5029219;28;20041;-81
2021/06/07 07:51:33;;;;;;;24.52;15.60;;;19.30;84.00;;;17.85;80.16;101299.81;5029026;28;20497;-84
2021/06/07 07:54:12;;;;;;;23.20;15.50;;;19.20;83.40;;;17.89;80.74;101303.84;5029218;28;20121;-85
2021/06/07 07:56:51;;;;;;;22.73;15.15;;;19.30;84.10;;;17.93;80.49;101310.66;5029302;28;20041;-85
2021/06/07 07:59:29;;;;;;;22.65;16.08;;;19.30;83.70;;;17.96;79.77;101304.69;5028884;28;20037;-85
2021/06/07 08:02:05;;;;;;;20.98;15.43;;;19.40;83.30;;;18.01;79.87;101298.56;5029013;28;20052;-85
2021/06/07 08:04:43;;;;;;;21.50;15.10;;;19.40;83.30;;;18.06;79.62;101292.38;5028929;28;20072;-84
2021/06/07 08:07:21;;;;;;;27.13;15.38;;;19.50;83.10;;;18.09;79.77;101292.81;5029117;28;20057;-85
2021/06/07 08:09:56;;;;;;;26.75;15.25;;;19.50;83.60;;;18.12;80.74;101288.75;5028635;28;20064;-84
2021/06/07 08:12:30;;;;;;;23.85;14.90;;;19.60;83.60;;;18.16;80.68;101287.25;5029059;28;20379;-83
2021/06/07 08:15:09;;;;;;;24.15;15.43;;;19.60;83.60;;;18.18;80.50;101285.13;5028981;28;20056;-83
2021/06/07 08:17:44;;;;;;;19.55;14.18;;;19.70;83.70;;;18.23;80.33;101284.50;5029106;28;20041;-84
2021/06/07 08:20:29;;;;;;;21.92;14.43;;;19.70;83.20;;;18.33;84.43;101283.00;5021983;28;20068;-83
2021/06/07 08:23:04;;;;;;;23.42;15.50;;;19.80;86.30;;;18.33;80.63;101280.25;5020430;28;20049;-83
2021/06/07 08:25:40;;;;;;;20.05;14.45;;;19.80;83.60;;;18.31;80.56;101284.25;5029080;28;20045;-83
2021/06/07 08:28:17;;;;;;;25.73;14.88;;;19.80;82.60;;;18.33;80.49;101288.50;5027553;28;20472;-84
2021/06/07 08:30:55;;;;;;;24.38;13.80;;;19.80;82.70;;;18.41;81.48;101286.56;5028798;28;20145;-84
2021/06/07 08:33:35;;;;;;;19.38;13.25;;;19.90;83.70;;;18.43;78.99;101287.19;5028798;28;20086;-82
2021/06/07 08:36:14;;;;;;;20.48;13.30;;;19.90;81.80;;;18.42;79.07;101288.25;5028984;28;20056;-79
2021/06/07 08:38:52;;;;;;;26.30;12.73;;;19.90;81.10;;;18.43;78.79;101289.94;5028626;28;20045;-78
2021/06/07 08:41:30;;;;;;;21.67;13.25;;;19.90;81.50;;;18.42;78.67;101291.00;5028193;28;20049;-79
2021/06/07 08:44:02;;;;;;;16.10;11.27;;;19.90;81.40;;;18.44;78.36;101288.88;5028611;28;20049;-80
2021/06/07 08:46:37;;;;;;;;;;;20.00;81.40;;;18.46;78.89;101290.34;5029258;28;20099;-79
2021/06/07 08:49:15;;;;;;;13.63;8.88;;;20.00;81.10;;;18.54;80.83;101297.53;5026945;28;20373;-80
2021/06/07 08:51:51;;;;;;;14.55;9.35;;;20.10;83.00;;;18.57;77.94;101288.84;5008865;28;20050;-80
2021/06/07 08:54:26;;;;;;;20.45;9.65;;;20.10;80.80;;;18.56;76.49;101298.16;5008995;28;20038;-80
2021/06/07 08:57:04;;;;;;;12.45;8.60;;;20.10;79.30;;;18.57;76.89;101288.84;5008717;28;20116;-80
2021/06/07 08:59:44;;;;;;;18.25;10.85;;;20.10;79.80;;;18.59;77.19;101289.47;5007237;28;20053;-80
2021/06/07 09:02:34;;;;;;;13.65;9.75;;;20.10;79.80;;;18.59;77.27;101281.19;5024890;28;20048;-78
2021/06/07 09:05:17;;;;;;;15.27;10.47;;;20.10;79.50;;;18.57;76.88;101283.31;5026588;28;20048;-80
2021/06/07 09:08:07;;;;;;;17.10;10.48;;;20.10;79.10;;;18.53;75.64;101276.56;5027710;28;20045;-79
2021/06/07 09:10:48;;;;;;;17.05;11.18;;;20.00;78.80;;;18.50;75.97;101277.81;5015676;28;20045;-80
2021/06/07 09:13:26;;;;;;;14.90;10.45;;;20.00;78.90;;;18.50;76.37;101288.00;5013488;28;20069;-80
2021/06/07 09:16:03;;;;;;;24.55;10.65;;;20.00;79.50;;;18.50;76.44;101282.50;5031681;28;20099;-79
2021/06/07 09:18:42;;;;;;;17.88;10.15;;;20.00;79.80;;;18.47;76.02;101289.31;5028021;28;20501;-80
2021/06/07 09:21:21;;;;;;;12.10;9.57;;;20.00;79.50;;;18.46;75.90;101284.00;5031689;28;20049;-79
2021/06/07 09:23:56;;;;;;;15.55;10.30;;;19.90;79.40;;;18.46;76.16;101292.25;5031819;28;20522;-79
2021/06/07 09:26:38;;;;;;;12.80;9.60;;;19.90;79.60;;;18.44;76.27;101288.88;5032038;28;20049;-79
2021/06/07 09:29:14;;;;;;;;;;;19.80;79.40;;;18.43;76.33;101288.06;5031985;28;20136;-79
2021/06/07 09:31:57;;;;;;;14.52;9.63;;;19.80;79.50;;;18.40;76.98;101296.75;5031656;28;19921;-79
2021/06/07 09:34:35;;;;;;;16.00;11.85;;;19.80;80.40;;;18.35;77.13;101297.41;5031665;28;20092;-78
2021/06/07 09:37:15;;;;;;;18.67;13.55;;;19.80;80.60;;;18.35;77.57;101296.53;5031828;28;20046;-78
2021/06/07 09:39:53;;;;;;;21.88;15.55;;;19.80;80.90;;;18.33;77.01;101299.53;5031187;28;20059;-78
2021/06/07 09:42:29;;;;;;;21.95;16.88;;;19.70;80.00;;;18.30;76.20;101299.13;5025998;28;20118;-78
2021/06/07 09:45:07;;;;;;;23.50;17.95;;;19.70;80.00;;;18.28;76.79;101302.09;5037510;28;20558;-78
2021/06/07 09:48:10;;;;;;;20.42;15.82;;;19.60;80.70;;;18.26;77.98;101298.69;5031126;28;20042;-79
2021/06/07 09:51:02;;;;;;;25.15;16.88;;;19.60;81.60;;;18.25;78.94;101294.25;5031144;28;20045;-78
2021/06/07 09:54:02;;;;;;;22.48;17.42;;;19.60;82.30;;;18.26;78.28;101298.69;5031412;28;20041;-78
2021/06/07 09:56:34;;;;;;;19.77;16.10;;;19.60;81.90;;;18.26;78.34;101292.31;5020190;28;20128;-78
2021/06/07 09:59:33;;;;;;;22.30;16.73;;;19.60;81.90;;;18.24;78.07;101298.06;5029400;28;20073;-78
2021/06/07 10:02:18;;;;;;;22.75;16.83;;;19.60;81.10;;;18.24;77.95;101300.81;5031230;28;20676;-78
2021/06/07 10:05:03;;;;;;;22.35;15.07;;;19.60;81.40;;;18.24;77.85;101302.72;5030921;28;20464;-78
2021/06/07 10:07:55;;;;;;;21.48;16.27;;;19.60;81.10;;;18.22;78.10;101304.84;5031205;28;20417;-77
2021/06/07 10:10:30;;;;;;;20.83;15.60;;;19.50;81.60;;;18.21;77.65;101298.50;5030601;28;20045;-78
2021/06/07 10:13:15;;;;;;;21.20;15.55;;;19.50;81.00;;;18.21;77.28;101292.16;5031174;28;20494;-78
2021/06/07 10:15:52;;;;;;;17.40;14.50;;;19.50;80.90;;;18.20;77.40;101296.81;5011121;28;20145;-78
2021/06/07 10:18:31;;;;;;;24.10;16.23;;;19.50;81.50;;;18.21;77.81;101300.41;5011192;28;20054;-79
2021/06/07 10:21:11;;;;;;;23.38;15.80;;;19.50;81.60;;;18.20;77.79;101299.56;5025769;28;20465;-78
2021/06/07 10:23:49;;;;;;;21.00;15.63;;;19.50;81.60;;;18.19;78.35;101297.88;5025141;28;20128;-79
2021/06/07 10:26:22;;;;;;;21.73;15.05;;;19.50;81.90;;;18.20;77.76;101310.59;5031092;28;20053;-79
2021/06/07 10:29:03;;;;;;;22.13;14.57;;;19.50;81.00;;;18.20;77.61;101302.31;5029336;28;20497;-79
2021/06/07 10:31:47;;;;;;;20.50;14.85;;;19.50;81.10;;;18.20;77.39;101299.56;5030299;28;20122;-78
2021/06/07 10:34:24;;;;;;;18.80;13.70;;;19.50;81.20;;;18.21;77.67;101295.75;5029890;28;20060;-81
2021/06/07 10:37:08;;;;;;;14.65;11.55;;;19.50;81.40;;;18.22;77.23;101297.44;5030487;28;20494;-79
2021/06/07 10:39:46;;;;;;;14.60;9.00;;;19.50;80.60;;;18.22;76.61;101302.97;5030210;28;20037;-79
2021/06/07 10:42:36;;;;;;;13.98;9.32;;;19.50;79.80;;;18.23;76.28;101298.28;5030541;28;20041;-77
2021/06/07 10:45:24;;;;;;;14.57;9.38;;;19.50;79.90;;;18.23;76.45;101299.13;5030072;28;20136;-77